createdAt,value
2019-03-01T00:01:42.205Z,12.99
2019-03-01T00:04:13.246Z,13.04
2019-03-01T00:06:44.281Z,13.00
2019-03-01T00:09:35.126Z,12.88
2019-03-01T00:12:08.232Z,12.79
2019-03-01T00:14:41.502Z,12.83
2019-03-01T00:20:05.476Z,13.17
2019-03-01T00:22:48.642Z,13.11
2019-03-01T00:25:21.993Z,12.94
2019-03-01T00:28:06.407Z,12.89
2019-03-01T00:30:40.570Z,12.82
2019-03-01T00:33:14.395Z,12.79
2019-03-01T00:35:53.281Z,12.74
2019-03-01T00:38:50.450Z,12.66
2019-03-01T00:41:24.342Z,12.59
2019-03-01T00:43:58.646Z,12.51
2019-03-01T00:46:26.069Z,12.48
2019-03-01T00:48:53.496Z,12.51
2019-03-01T00:51:20.888Z,12.50
2019-03-01T00:53:48.295Z,12.52
2019-03-01T00:56:15.685Z,12.49
2019-03-01T00:58:43.099Z,12.46
2019-03-01T01:01:10.553Z,12.40
2019-03-01T01:03:38.129Z,12.36
2019-03-01T01:06:05.515Z,12.35
2019-03-01T01:08:32.904Z,12.38
2019-03-01T01:11:00.307Z,12.40
2019-03-01T01:13:27.698Z,12.35
2019-03-01T01:15:55.095Z,12.32
2019-03-01T01:18:22.495Z,12.29
2019-03-01T01:20:49.893Z,12.29
2019-03-01T01:23:17.304Z,12.34
2019-03-01T01:25:44.695Z,12.37
2019-03-01T01:28:12.103Z,12.35
2019-03-01T01:30:39.503Z,12.36
2019-03-01T01:33:06.986Z,12.37
2019-03-01T01:35:34.386Z,12.40
2019-03-01T01:38:01.869Z,12.38
2019-03-01T01:40:29.270Z,12.37
2019-03-01T01:42:56.682Z,12.33
2019-03-01T01:45:24.069Z,12.27
2019-03-01T01:47:51.551Z,12.19
2019-03-01T01:50:19.007Z,12.10
2019-03-01T01:52:46.391Z,12.10
2019-03-01T01:55:13.813Z,12.11
2019-03-01T01:57:41.479Z,12.16
2019-03-01T02:00:08.932Z,12.21
2019-03-01T02:02:36.314Z,12.21
2019-03-01T02:05:03.764Z,12.16
2019-03-01T02:07:31.182Z,12.06
2019-03-01T02:09:58.603Z,11.99
2019-03-01T02:12:26.050Z,11.93
2019-03-01T02:14:53.447Z,11.87
2019-03-01T02:17:20.843Z,11.83
2019-03-01T02:19:49.021Z,11.78
2019-03-01T02:22:16.468Z,11.78
2019-03-01T02:24:43.860Z,11.80
2019-03-01T02:27:16.642Z,11.72
2019-03-01T02:29:44.062Z,11.68
2019-03-01T02:32:11.455Z,11.69
2019-03-01T02:34:39.173Z,11.73
2019-03-01T02:37:06.560Z,11.80
2019-03-01T02:39:34.055Z,11.81
2019-03-01T02:42:01.567Z,11.81
2019-03-01T02:44:29.729Z,11.85
2019-03-01T02:46:57.130Z,11.91
2019-03-01T02:49:24.926Z,12.00
2019-03-01T02:51:52.323Z,12.00
2019-03-01T02:54:19.788Z,12.00
2019-03-01T02:56:47.141Z,12.01
2019-03-01T02:59:14.586Z,12.05
2019-03-01T03:01:42.042Z,12.09
2019-03-01T03:04:09.448Z,12.11
2019-03-01T03:06:38.800Z,12.12
2019-03-01T03:09:06.182Z,12.13
2019-03-01T03:11:33.611Z,12.14
2019-03-01T03:14:00.996Z,12.10
2019-03-01T03:16:28.419Z,12.09
2019-03-01T03:18:55.809Z,12.11
2019-03-01T03:21:23.239Z,12.03
2019-03-01T03:23:50.644Z,12.03
2019-03-01T03:26:18.074Z,12.02
2019-03-01T03:28:45.706Z,12.06
2019-03-01T03:31:13.116Z,12.01
2019-03-01T03:33:40.610Z,12.01
2019-03-01T03:36:08.004Z,11.99
2019-03-01T03:38:35.730Z,11.91
2019-03-01T03:41:03.136Z,11.92
2019-03-01T03:43:30.550Z,11.94
2019-03-01T03:45:57.987Z,12.01
2019-03-01T03:48:25.374Z,12.00
2019-03-01T03:50:52.760Z,11.99
2019-03-01T03:53:20.166Z,12.02
2019-03-01T03:55:47.567Z,12.03
2019-03-01T03:58:15.195Z,11.98
2019-03-01T04:00:42.652Z,12.00
2019-03-01T04:03:10.041Z,11.96
2019-03-01T04:05:37.451Z,11.88
2019-03-01T04:08:04.834Z,11.90
2019-03-01T04:10:32.258Z,11.88
2019-03-01T04:12:59.688Z,11.85
2019-03-01T04:15:27.112Z,11.84
2019-03-01T04:17:54.547Z,11.84
2019-03-01T04:20:21.956Z,11.82
2019-03-01T04:22:49.567Z,11.81
2019-03-01T04:25:17.001Z,11.82
2019-03-01T04:27:44.396Z,11.86
2019-03-01T04:30:12.417Z,11.89
2019-03-01T04:32:39.818Z,11.90
2019-03-01T04:35:07.230Z,11.88
2019-03-01T04:37:34.639Z,11.88
2019-03-01T04:40:02.045Z,11.84
2019-03-01T04:42:29.465Z,11.84
2019-03-01T04:44:56.854Z,11.88
2019-03-01T04:47:24.441Z,11.78
2019-03-01T04:49:51.851Z,11.72
2019-03-01T04:52:26.121Z,11.73
2019-03-01T04:54:53.537Z,11.70
2019-03-01T04:57:20.928Z,11.67
2019-03-01T04:59:48.360Z,11.68
2019-03-01T05:02:15.748Z,11.64
2019-03-01T05:04:43.157Z,11.70
2019-03-01T05:07:10.563Z,11.74
2019-03-01T05:09:37.980Z,11.79
2019-03-01T05:12:05.463Z,11.77
2019-03-01T05:14:32.882Z,11.72
2019-03-01T05:17:00.287Z,11.67
2019-03-01T05:19:27.725Z,11.63
2019-03-01T05:21:55.295Z,11.63
2019-03-01T05:24:22.722Z,11.59
2019-03-01T05:26:50.152Z,11.58
2019-03-01T05:29:17.972Z,11.61
2019-03-01T05:31:45.542Z,11.62
2019-03-01T05:34:13.129Z,11.62
2019-03-01T05:36:40.647Z,11.64
2019-03-01T05:39:08.339Z,11.62
2019-03-01T05:41:35.742Z,11.64
2019-03-01T05:44:03.133Z,11.62
2019-03-01T05:46:30.539Z,11.58
2019-03-01T05:48:58.049Z,11.58
2019-03-01T05:51:25.430Z,11.51
2019-03-01T05:53:52.871Z,11.49
2019-03-01T05:56:20.273Z,11.45
2019-03-01T05:58:47.677Z,11.43
2019-03-01T06:01:15.137Z,11.39
2019-03-01T06:06:41.552Z,11.51
2019-03-01T06:09:20.603Z,11.44
2019-03-01T06:11:55.648Z,11.48
2019-03-01T06:14:32.614Z,11.41
2019-03-01T06:17:15.941Z,11.31
2019-03-01T06:19:59.778Z,11.25
2019-03-01T06:22:37.173Z,11.26
2019-03-01T06:25:11.391Z,11.28
2019-03-01T06:27:44.613Z,11.27
2019-03-01T06:30:28.744Z,11.32
2019-03-01T06:33:05.691Z,11.44
2019-03-01T06:35:39.108Z,11.36
2019-03-01T06:44:13.825Z,11.74
2019-03-01T06:49:43.384Z,11.80
2019-03-01T06:52:10.776Z,11.72
2019-03-01T06:54:38.786Z,11.69
2019-03-01T06:57:06.198Z,11.63
2019-03-01T06:59:33.656Z,11.58
2019-03-01T07:02:02.822Z,11.59
2019-03-01T07:04:28.687Z,11.49
2019-03-01T07:06:56.105Z,11.42
2019-03-01T07:09:23.628Z,11.41
2019-03-01T07:11:51.150Z,11.43
2019-03-01T07:14:18.559Z,11.37
2019-03-01T07:16:45.965Z,11.31
2019-03-01T07:19:13.643Z,11.30
2019-03-01T07:21:41.059Z,11.37
2019-03-01T07:24:08.620Z,11.28
2019-03-01T07:26:35.947Z,11.27
2019-03-01T07:29:03.386Z,11.32
2019-03-01T07:31:30.945Z,11.33
2019-03-01T07:33:58.343Z,11.38
2019-03-01T07:36:25.758Z,11.37
2019-03-01T07:38:53.180Z,11.43
2019-03-01T07:41:20.604Z,11.43
2019-03-01T07:43:48.090Z,11.43
2019-03-01T07:46:15.545Z,11.42
2019-03-01T07:48:43.053Z,11.41
2019-03-01T07:51:10.436Z,11.39
2019-03-01T07:53:41.878Z,11.37
2019-03-01T07:56:05.536Z,11.32
2019-03-01T07:58:33.041Z,11.31
2019-03-01T08:01:00.451Z,11.32
2019-03-01T08:03:27.846Z,11.30
2019-03-01T08:05:55.282Z,11.36
2019-03-01T08:08:22.698Z,11.39
2019-03-01T08:10:50.168Z,11.38
2019-03-01T08:13:18.443Z,11.40
2019-03-01T08:15:45.917Z,11.44
2019-03-01T08:18:12.728Z,11.44
2019-03-01T08:20:40.324Z,11.40
2019-03-01T08:23:07.782Z,11.40
2019-03-01T08:25:35.207Z,11.34
2019-03-01T08:28:03.523Z,11.34
2019-03-01T08:30:31.182Z,11.28
2019-03-01T08:32:58.598Z,11.27
2019-03-01T08:35:28.268Z,11.28
2019-03-01T08:37:54.358Z,11.25
2019-03-01T08:40:21.520Z,11.36
2019-03-01T08:42:49.107Z,11.44
2019-03-01T08:45:16.892Z,11.48
2019-03-01T08:47:44.401Z,11.52
2019-03-01T08:50:11.949Z,11.53
2019-03-01T08:52:40.461Z,11.59
2019-03-01T08:55:06.817Z,11.66
2019-03-01T08:57:43.751Z,11.60
2019-03-01T09:00:02.438Z,11.61
2019-03-01T09:02:29.185Z,11.70
2019-03-01T09:04:56.784Z,11.83
2019-03-01T09:07:27.224Z,11.89
2019-03-01T09:09:53.666Z,11.91
2019-03-01T09:12:19.258Z,12.06
2019-03-01T09:14:47.096Z,12.22
2019-03-01T09:17:14.499Z,12.32
2019-03-01T09:19:41.959Z,12.40
2019-03-01T09:22:10.097Z,12.43
2019-03-01T09:24:37.530Z,12.47
2019-03-01T09:27:05.004Z,12.54
2019-03-01T09:29:41.218Z,12.53
2019-03-01T09:31:59.979Z,12.57
2019-03-01T09:34:28.693Z,12.61
2019-03-01T09:36:55.724Z,12.76
2019-03-01T09:39:22.318Z,12.88
2019-03-01T09:41:49.773Z,12.75
2019-03-01T09:44:17.318Z,12.73
2019-03-01T09:46:44.722Z,12.71
2019-03-01T09:49:12.137Z,12.78
2019-03-01T09:51:39.540Z,12.76
2019-03-01T09:54:09.381Z,12.81
2019-03-01T09:56:34.404Z,12.73
2019-03-01T09:59:01.843Z,12.70
2019-03-01T10:01:29.272Z,12.72
2019-03-01T10:03:56.688Z,12.89
2019-03-01T10:06:24.107Z,13.07
2019-03-01T10:08:51.539Z,13.21
2019-03-01T10:11:19.211Z,13.05
2019-03-01T10:13:46.602Z,12.80
2019-03-01T10:16:14.665Z,12.72
2019-03-01T10:18:42.075Z,12.89
2019-03-01T10:21:09.506Z,12.89
2019-03-01T10:23:36.916Z,12.87
2019-03-01T10:26:04.348Z,12.93
2019-03-01T10:28:31.730Z,12.92
2019-03-01T10:30:59.182Z,12.91
2019-03-01T10:33:26.673Z,12.81
2019-03-01T10:35:54.103Z,12.79
2019-03-01T10:38:21.550Z,12.92
2019-03-01T10:40:49.070Z,12.99
2019-03-01T10:43:16.608Z,12.97
2019-03-01T10:45:44.026Z,12.97
2019-03-01T10:48:11.418Z,12.95
2019-03-01T10:50:38.868Z,12.88
2019-03-01T10:53:06.294Z,12.86
2019-03-01T10:55:33.748Z,12.77
2019-03-01T10:58:01.532Z,12.49
2019-03-01T11:00:28.943Z,12.33
2019-03-01T11:02:56.353Z,12.34
2019-03-01T11:05:23.751Z,12.23
2019-03-01T11:07:51.187Z,12.22
2019-03-01T11:10:19.527Z,12.16
2019-03-01T11:12:47.316Z,12.15
2019-03-01T11:15:14.779Z,12.13
2019-03-01T11:17:42.285Z,12.05
2019-03-01T11:20:10.636Z,12.04
2019-03-01T11:22:38.076Z,11.90
2019-03-01T11:25:05.591Z,11.88
2019-03-01T11:27:32.979Z,12.01
2019-03-01T11:30:00.386Z,12.04
2019-03-01T11:32:28.065Z,12.07
2019-03-01T11:34:55.626Z,12.02
2019-03-01T11:37:23.046Z,11.98
2019-03-01T11:39:50.556Z,11.98
2019-03-01T11:42:18.026Z,11.94
2019-03-01T11:44:45.467Z,11.91
2019-03-01T11:47:12.853Z,11.89
2019-03-01T11:49:40.286Z,11.82
2019-03-01T11:52:07.723Z,11.80
2019-03-01T11:54:35.119Z,11.78
2019-03-01T11:57:02.548Z,11.71
2019-03-01T11:59:29.984Z,11.74
2019-03-01T12:01:57.446Z,11.82
2019-03-01T12:04:24.843Z,11.73
2019-03-01T12:06:52.439Z,11.58
2019-03-01T12:09:19.890Z,11.48
2019-03-01T12:11:47.285Z,11.45
2019-03-01T12:14:15.589Z,11.53
2019-03-01T12:16:43.114Z,11.61
2019-03-01T12:19:10.564Z,11.63
2019-03-01T12:21:37.956Z,11.73
2019-03-01T12:24:05.430Z,11.81
2019-03-01T12:26:32.899Z,11.84
2019-03-01T12:29:00.365Z,11.80
2019-03-01T12:31:27.864Z,11.75
2019-03-01T12:33:55.255Z,11.76
2019-03-01T12:36:22.677Z,11.70
2019-03-01T12:38:50.094Z,11.67
2019-03-01T12:41:17.509Z,11.70
2019-03-01T12:43:45.060Z,11.68
2019-03-01T12:46:12.518Z,11.66
2019-03-01T12:48:39.909Z,11.65
2019-03-01T12:51:07.600Z,11.58
2019-03-01T12:53:35.270Z,11.56
2019-03-01T12:56:02.682Z,11.56
2019-03-01T12:58:30.088Z,11.53
2019-03-01T13:00:57.499Z,11.42
2019-03-01T13:03:24.917Z,11.37
2019-03-01T13:05:52.432Z,11.32
2019-03-01T13:08:19.894Z,11.36
2019-03-01T13:10:47.284Z,11.41
2019-03-01T13:13:14.772Z,11.37
2019-03-01T13:15:45.437Z,11.29
2019-03-01T13:18:15.742Z,11.28
2019-03-01T13:20:38.395Z,11.21
2019-03-01T13:23:06.210Z,11.14
2019-03-01T13:25:33.217Z,11.22
2019-03-01T13:28:00.623Z,11.15
2019-03-01T13:30:28.042Z,11.05
2019-03-01T13:32:58.886Z,10.97
2019-03-01T13:35:26.111Z,10.96
2019-03-01T13:37:52.013Z,10.96
2019-03-01T13:40:20.913Z,10.95
2019-03-01T13:42:47.272Z,11.06
2019-03-01T13:45:15.040Z,11.19
2019-03-01T13:47:44.034Z,11.25
2019-03-01T13:50:09.417Z,11.40
2019-03-01T13:52:36.924Z,11.68
2019-03-01T13:55:04.327Z,12.11
2019-03-01T13:57:31.916Z,12.83
2019-03-01T13:59:59.299Z,13.23
2019-03-01T14:02:26.747Z,13.52
2019-03-01T14:04:54.190Z,13.20
2019-03-01T14:07:21.667Z,12.87
2019-03-01T14:09:49.063Z,12.75
2019-03-01T14:12:16.644Z,13.01
2019-03-01T14:14:44.140Z,13.02
2019-03-01T14:17:11.691Z,12.88
2019-03-01T14:19:42.169Z,12.72
2019-03-01T14:22:10.591Z,12.41
2019-03-01T14:24:34.281Z,12.16
2019-03-01T14:27:01.695Z,11.89
2019-03-01T14:29:29.070Z,11.71
2019-03-01T14:31:56.505Z,11.61
2019-03-01T14:34:24.019Z,11.40
2019-03-01T14:36:51.441Z,11.22
2019-03-01T14:39:18.876Z,11.09
2019-03-01T14:41:47.242Z,10.99
2019-03-01T14:44:14.627Z,10.98
2019-03-01T14:46:42.223Z,11.01
2019-03-01T14:49:09.723Z,10.94
2019-03-01T14:51:37.170Z,10.86
2019-03-01T14:54:07.058Z,10.81
2019-03-01T14:56:34.923Z,10.82
2019-03-01T14:59:09.203Z,10.82
2019-03-01T15:01:38.172Z,10.82
2019-03-01T15:04:05.676Z,10.83
2019-03-01T15:06:33.144Z,10.91
2019-03-01T15:09:00.572Z,11.05
2019-03-01T15:11:28.180Z,11.34
2019-03-01T15:13:55.588Z,11.51
2019-03-01T15:16:23.084Z,11.69
2019-03-01T15:18:50.521Z,11.88
2019-03-01T15:21:17.935Z,11.98
2019-03-01T15:23:45.362Z,11.96
2019-03-01T15:26:12.850Z,11.80
2019-03-01T15:28:43.951Z,11.69
2019-03-01T15:31:11.419Z,11.66
2019-03-01T15:33:38.820Z,11.42
2019-03-01T15:36:06.405Z,11.43
2019-03-01T15:38:33.808Z,11.33
2019-03-01T15:41:03.601Z,11.15
2019-03-01T15:43:29.891Z,10.93
2019-03-01T15:45:56.057Z,10.78
2019-03-01T15:48:23.498Z,10.78
2019-03-01T15:50:50.921Z,10.73
2019-03-01T15:53:21.501Z,10.73
2019-03-01T15:55:45.785Z,10.77
2019-03-01T15:58:14.285Z,10.75
2019-03-01T16:00:41.678Z,10.71
2019-03-01T16:03:09.175Z,10.65
2019-03-01T16:05:37.517Z,10.56
2019-03-01T16:08:05.485Z,10.49
2019-03-01T16:10:32.934Z,10.41
2019-03-01T16:12:59.302Z,10.37
2019-03-01T16:15:26.789Z,10.36
2019-03-01T16:17:54.325Z,10.33
2019-03-01T16:20:25.114Z,10.37
2019-03-01T16:22:51.160Z,10.48
2019-03-01T16:25:17.207Z,10.50
2019-03-01T16:27:44.333Z,10.60
2019-03-01T16:30:14.596Z,10.59
2019-03-01T16:32:40.838Z,10.69
2019-03-01T16:35:08.586Z,10.75
2019-03-01T16:37:37.784Z,10.79
2019-03-01T16:40:04.126Z,10.72
2019-03-01T16:42:38.171Z,10.62
2019-03-01T16:44:59.029Z,10.57
2019-03-01T16:47:26.451Z,10.54
2019-03-01T16:49:53.866Z,10.58
2019-03-01T16:52:21.287Z,10.51
2019-03-01T16:54:51.468Z,10.43
2019-03-01T16:57:16.091Z,10.34
2019-03-01T16:59:43.741Z,10.26
2019-03-01T17:02:11.010Z,10.31
2019-03-01T17:04:38.440Z,10.38
2019-03-01T17:07:05.845Z,10.38
2019-03-01T17:09:33.284Z,10.32
2019-03-01T17:12:00.733Z,10.36
2019-03-01T17:14:28.130Z,10.39
2019-03-01T17:16:56.284Z,10.38
2019-03-01T17:19:23.743Z,10.36
2019-03-01T17:21:51.150Z,10.35
2019-03-01T17:24:17.754Z,10.36
2019-03-01T17:26:45.152Z,10.22
2019-03-01T17:29:12.632Z,10.25
2019-03-01T17:31:40.047Z,10.18
2019-03-01T17:34:07.507Z,10.10
2019-03-01T17:36:35.124Z,10.17
2019-03-01T17:39:02.604Z,10.27
2019-03-01T17:41:30.001Z,10.31
2019-03-01T17:43:57.400Z,10.27
2019-03-01T17:46:25.479Z,10.26
2019-03-01T17:48:54.198Z,10.23
2019-03-01T17:51:21.185Z,10.26
2019-03-01T17:53:47.324Z,10.29
2019-03-01T17:56:14.653Z,10.31
2019-03-01T17:58:43.038Z,10.30
2019-03-01T18:01:10.420Z,10.26
2019-03-01T18:03:37.830Z,10.36
2019-03-01T18:06:05.387Z,10.38
2019-03-01T18:08:35.868Z,10.13
2019-03-01T18:11:00.331Z,10.03
2019-03-01T18:13:27.939Z,10.10
2019-03-01T18:15:55.400Z,10.08
2019-03-01T18:18:22.823Z,10.09
2019-03-01T18:20:50.237Z,10.07
2019-03-01T18:23:17.628Z,9.97
2019-03-01T18:25:45.034Z,9.89
2019-03-01T18:28:12.531Z,9.93
2019-03-01T18:30:40.091Z,10.02
2019-03-01T18:33:07.607Z,10.05
2019-03-01T18:35:35.059Z,10.11
2019-03-01T18:38:02.518Z,10.14
2019-03-01T18:40:29.980Z,10.08
2019-03-01T18:42:57.526Z,10.04
2019-03-01T18:45:24.993Z,10.04
2019-03-01T18:47:52.385Z,10.04
2019-03-01T18:50:36.038Z,10.02
2019-03-01T18:53:04.125Z,10.00
2019-03-01T18:55:30.992Z,10.07
2019-03-01T18:57:58.397Z,10.15
2019-03-01T19:00:32.564Z,10.14
2019-03-01T19:03:01.063Z,10.08
2019-03-01T19:05:25.678Z,10.01
2019-03-01T19:07:53.074Z,10.00
2019-03-01T19:10:20.465Z,10.01
2019-03-01T19:12:48.620Z,9.93
2019-03-01T19:15:16.280Z,9.87
2019-03-01T19:17:44.500Z,9.68
2019-03-01T19:20:10.954Z,9.59
2019-03-01T19:22:38.457Z,9.59
2019-03-01T19:25:05.865Z,9.69
2019-03-01T19:27:33.348Z,9.77
2019-03-01T19:30:00.790Z,9.79
2019-03-01T19:32:28.211Z,9.77
2019-03-01T19:34:55.595Z,9.76
2019-03-01T19:37:23.158Z,9.81
2019-03-01T19:39:50.617Z,9.82
2019-03-01T19:42:18.024Z,9.85
2019-03-01T19:44:45.445Z,9.94
2019-03-01T19:47:12.878Z,9.97
2019-03-01T19:49:40.286Z,10.02
2019-03-01T19:52:09.415Z,10.07
2019-03-01T19:54:35.697Z,9.97
2019-03-01T19:57:03.025Z,9.97
2019-03-01T19:59:30.407Z,10.01
2019-03-01T20:01:58.048Z,10.12
2019-03-01T20:04:25.564Z,10.23
2019-03-01T20:06:52.957Z,10.26
2019-03-01T20:09:20.417Z,10.13
2019-03-01T20:11:47.829Z,10.01
2019-03-01T20:14:16.887Z,9.95
2019-03-01T20:16:42.731Z,9.91
2019-03-01T20:19:10.232Z,9.82
2019-03-01T20:21:37.914Z,9.78
2019-03-01T20:24:06.836Z,9.74
2019-03-01T20:26:32.718Z,9.58
2019-03-01T20:29:00.133Z,9.56
2019-03-01T20:31:27.584Z,9.69
2019-03-01T20:33:54.958Z,9.79
2019-03-01T20:36:22.424Z,9.80
2019-03-01T20:38:49.833Z,9.92
2019-03-01T20:41:17.230Z,10.09
2019-03-01T20:43:44.648Z,10.14
2019-03-01T20:48:45.804Z,10.20
2019-03-01T20:51:13.223Z,10.18
2019-03-01T20:53:40.676Z,10.16
2019-03-01T20:56:09.944Z,10.16
2019-03-01T20:58:39.397Z,10.07
2019-03-01T21:01:03.311Z,9.99
2019-03-01T21:03:30.775Z,9.89
2019-03-01T21:05:58.177Z,9.90
2019-03-01T21:08:28.797Z,10.04
2019-03-01T21:10:53.159Z,9.99
2019-03-01T21:13:20.638Z,9.74
2019-03-01T21:15:48.140Z,9.63
2019-03-01T21:18:15.663Z,9.58
2019-03-01T21:23:16.834Z,9.72
2019-03-01T21:25:44.267Z,9.68
2019-03-01T21:28:11.653Z,9.68
2019-03-01T21:30:39.118Z,9.73
2019-03-01T21:33:06.515Z,9.72
2019-03-01T21:35:33.923Z,9.79
2019-03-01T21:38:01.350Z,9.87
2019-03-01T21:40:31.386Z,9.92
2019-03-01T21:42:59.736Z,9.98
2019-03-01T21:45:23.607Z,10.02
2019-03-01T21:47:51.135Z,10.03
2019-03-01T21:50:18.541Z,10.02
2019-03-01T21:52:45.926Z,9.99
2019-03-01T21:55:15.831Z,9.97
2019-03-01T21:57:44.188Z,9.83
2019-03-01T22:00:15.150Z,9.75
2019-03-01T22:02:42.556Z,9.79
2019-03-01T22:05:10.314Z,9.79
2019-03-01T22:07:38.197Z,9.79
2019-03-01T22:10:05.215Z,9.76
2019-03-01T22:12:32.633Z,9.78
2019-03-01T22:15:00.044Z,9.69
2019-03-01T22:17:27.464Z,9.75
2019-03-01T22:19:54.942Z,9.73
2019-03-01T22:22:22.440Z,9.71
2019-03-01T22:24:49.928Z,9.54
2019-03-01T22:27:17.348Z,9.47
2019-03-01T22:29:47.279Z,9.46
2019-03-01T22:32:12.259Z,9.40
2019-03-01T22:34:39.602Z,9.34
2019-03-01T22:37:07.003Z,9.40
2019-03-01T22:39:34.446Z,9.46
2019-03-01T22:42:01.849Z,9.56
2019-03-01T22:44:29.266Z,9.73
2019-03-01T22:46:57.926Z,9.81
2019-03-01T22:49:24.100Z,9.89
2019-03-01T22:51:52.914Z,9.93
2019-03-01T22:54:19.098Z,9.88
2019-03-01T22:56:48.482Z,9.85
2019-03-01T22:59:14.216Z,9.89
2019-03-01T23:01:41.638Z,9.93
2019-03-01T23:04:09.803Z,9.95
2019-03-01T23:06:37.253Z,9.88
2019-03-01T23:09:10.251Z,9.79
2019-03-01T23:11:32.509Z,9.68
2019-03-01T23:13:59.587Z,9.57
2019-03-01T23:16:27.091Z,9.60
2019-03-01T23:18:56.843Z,9.68
2019-03-01T23:21:21.969Z,9.72
2019-03-01T23:23:49.400Z,9.66
2019-03-01T23:26:18.663Z,9.62
2019-03-01T23:28:44.660Z,9.56
2019-03-01T23:31:11.774Z,9.60
2019-03-01T23:33:39.203Z,9.70
2019-03-01T23:36:06.617Z,9.79
2019-03-01T23:38:34.030Z,9.86
2019-03-01T23:41:01.502Z,9.76
2019-03-01T23:43:30.886Z,9.65
2019-03-01T23:45:56.338Z,9.66
2019-03-01T23:48:24.159Z,9.65
2019-03-01T23:50:51.549Z,9.67
2019-03-01T23:53:18.955Z,9.75
2019-03-01T23:55:46.362Z,9.78
2019-03-01T23:58:15.838Z,9.82
